Terminal Aerodrome Forecast
Issued by NWS

Home | Current Version | Previous Version | Text Only | Print | Product List | Glossary On
Versions: 1 2 3 4 5 6 7 8 9 10 11 12 13 14 15 16
000
FTUS44 KTSA 291700
TAFMLC
TAF
KMLC 291725Z 2918/3018 13006KT P6SM BKN015
      TEMPO 2918/2922 2SM -TSRA BKN008CB
     FM292200 20003KT 6SM -RA BKN035
      TEMPO 3000/3004 5SM TSRA BKN015CB
     FM300400 VRB03KT P6SM BKN035 PROB30 3004/3007 P6SM -RA BKN025
     FM301100 35006KT P6SM BKN025
      TEMPO 3011/3014 3SM BR BKN015=

USA.gov is the U.S. government's official web portal to all federal, state and local government web resources and services.